createdAt,value
2023-03-21T00:33:29.499Z,100986.28
2023-03-21T00:38:34.476Z,101206.16
2023-03-21T00:43:38.192Z,101186.97
2023-03-21T00:48:43.665Z,101209.72
2023-03-21T00:53:51.757Z,101412.16
2023-03-21T00:58:57.304Z,101096.78
2023-03-21T01:04:05.301Z,101196.78
2023-03-21T01:09:15.414Z,101371.56
2023-03-21T01:14:23.347Z,101339.19
2023-03-21T01:19:44.168Z,101195.16
2023-03-21T01:24:58.588Z,101368.69
2023-03-21T01:30:17.372Z,101320.84
2023-03-21T01:35:25.797Z,101174.34
2023-03-21T01:40:51.321Z,101257.53
2023-03-21T01:53:36.225Z,101244.84
2023-03-21T02:05:55.747Z,101154.06
2023-03-21T02:11:41.056Z,101343.97
2023-03-21T02:23:33.559Z,101287.38
2023-03-21T02:28:40.776Z,101318.63
2023-03-21T02:34:04.654Z,100990.66
2023-03-21T02:39:21.542Z,101243.16
2023-03-21T02:44:39.567Z,101306.22
2023-03-21T02:49:47.727Z,100951.44
2023-03-21T02:54:56.498Z,101163.69
2023-03-21T03:00:16.535Z,101136.97
2023-03-21T03:05:33.579Z,100992.25
2023-03-21T03:10:52.030Z,101108.34
2023-03-21T03:16:09.467Z,100943.78
2023-03-21T03:21:26.236Z,100886.31
2023-03-21T03:27:05.301Z,101274.81
2023-03-21T03:32:39.465Z,101205.50
2023-03-21T03:37:47.508Z,101253.31
2023-03-21T03:43:08.314Z,101041.41
2023-03-21T03:48:39.096Z,100923.22
2023-03-21T03:53:58.596Z,100814.22
2023-03-21T03:59:09.648Z,101134.16
2023-03-21T04:04:38.464Z,100942.88
2023-03-21T04:09:48.667Z,101079.91
2023-03-21T04:15:47.708Z,100822.31
2023-03-21T04:21:03.445Z,101206.31
2023-03-21T04:26:18.175Z,100949.84
2023-03-21T04:32:19.767Z,100998.50
2023-03-21T04:37:33.953Z,100904.03
2023-03-21T04:42:38.248Z,101149.78
2023-03-21T04:47:42.704Z,101068.25
2023-03-21T04:52:45.869Z,101015.16
2023-03-21T04:57:49.716Z,101229.81
2023-03-21T05:02:54.355Z,101235.13
2023-03-21T05:07:57.338Z,101251.00
2023-03-21T05:13:03.798Z,101240.69
2023-03-21T05:18:13.202Z,101232.25
2023-03-21T05:31:13.545Z,101153.63
2023-03-21T05:36:18.265Z,101130.53
2023-03-21T05:41:23.590Z,101021.59
2023-03-21T05:46:29.727Z,100941.81
2023-03-21T05:51:34.619Z,101165.47
2023-03-21T05:56:37.945Z,101164.06
2023-03-21T06:01:43.828Z,101225.09
2023-03-21T06:07:05.780Z,101170.75
2023-03-21T06:12:13.774Z,101053.88
2023-03-21T06:17:48.222Z,101218.59
2023-03-21T06:22:55.351Z,101109.22
2023-03-21T06:33:46.355Z,101108.66
2023-03-21T06:38:51.004Z,100999.19
2023-03-21T06:43:54.876Z,101151.91
2023-03-21T06:48:58.231Z,101215.50
2023-03-21T06:54:06.153Z,101115.88
2023-03-21T06:59:20.950Z,101200.25
2023-03-21T07:04:31.092Z,101203.78
2023-03-21T07:09:35.707Z,101208.97
2023-03-21T07:14:41.078Z,101200.25
2023-03-21T07:19:44.946Z,100980.63
2023-03-21T07:25:02.298Z,101130.75
2023-03-21T07:30:13.971Z,101177.75
2023-03-21T07:35:18.866Z,101203.22
2023-03-21T07:40:23.635Z,101155.88
2023-03-21T07:45:29.276Z,101062.03
2023-03-21T07:50:35.960Z,101194.31
2023-03-21T07:55:42.842Z,101181.44
2023-03-21T08:00:48.837Z,100853.88
2023-03-21T08:06:04.694Z,101206.41
2023-03-21T08:11:13.053Z,101200.44
2023-03-21T08:17:01.601Z,100766.09
2023-03-21T08:22:06.653Z,101217.78
2023-03-21T08:27:10.688Z,100917.72
2023-03-21T08:32:13.453Z,100805.94
2023-03-21T08:37:16.652Z,101212.28
2023-03-21T08:42:21.992Z,101219.84
2023-03-21T08:47:25.701Z,101222.13
2023-03-21T08:52:29.095Z,101212.09
2023-03-21T08:57:33.309Z,101046.25
2023-03-21T09:02:36.076Z,100990.84
2023-03-21T09:07:39.655Z,100971.59
2023-03-21T09:12:44.483Z,101230.56
2023-03-21T09:17:50.004Z,101000.22
2023-03-21T09:22:53.247Z,101063.13
2023-03-21T09:27:58.096Z,101200.84
2023-03-21T09:33:04.022Z,101052.13
2023-03-21T09:38:06.983Z,101033.03
2023-03-21T09:43:24.992Z,101178.53
2023-03-21T09:48:37.628Z,101203.31
2023-03-21T09:53:44.432Z,101064.47
2023-03-21T09:58:53.245Z,101197.94
2023-03-21T10:04:00.347Z,101117.06
2023-03-21T10:09:09.220Z,101101.03
2023-03-21T10:14:19.583Z,101180.63
2023-03-21T10:19:23.416Z,101008.59
2023-03-21T10:24:29.192Z,101017.50
2023-03-21T10:29:43.637Z,100984.31
2023-03-21T10:34:49.012Z,101114.72
2023-03-21T10:39:54.636Z,101135.69
2023-03-21T10:44:58.793Z,101124.78
2023-03-21T10:50:08.414Z,101118.66
2023-03-21T10:55:21.347Z,101118.97
2023-03-21T11:00:30.317Z,101047.63
2023-03-21T11:05:40.213Z,101001.19
2023-03-21T11:10:53.569Z,101098.78
2023-03-21T11:16:06.126Z,100857.97
2023-03-21T11:21:11.611Z,101096.50
2023-03-21T11:26:23.980Z,100932.81
2023-03-21T11:31:43.038Z,101058.38
2023-03-21T11:36:51.978Z,101083.31
2023-03-21T11:41:54.720Z,101072.91
2023-03-21T11:46:59.593Z,100940.66
2023-03-21T11:52:18.724Z,101032.03
2023-03-21T11:57:29.568Z,101025.84
2023-03-21T12:03:08.851Z,100846.91
2023-03-21T12:08:27.877Z,100918.16
2023-03-21T12:13:45.811Z,101049.03
2023-03-21T12:19:04.395Z,101046.81
2023-03-21T12:24:13.537Z,101025.41
2023-03-21T12:29:34.797Z,100914.63
2023-03-21T12:34:57.802Z,101031.66
2023-03-21T12:40:10.880Z,100907.88
2023-03-21T12:45:18.704Z,101032.25
2023-03-21T12:50:27.255Z,101021.44
2023-03-21T12:55:32.826Z,100995.31
2023-03-21T13:00:43.089Z,100997.41
2023-03-21T13:05:51.419Z,100697.25
2023-03-21T13:10:55.415Z,100744.47
2023-03-21T13:16:12.237Z,100771.22
2023-03-21T13:21:21.656Z,100768.94
2023-03-21T13:26:36.800Z,100942.03
2023-03-21T13:31:52.041Z,100879.81
2023-03-21T13:36:57.795Z,100944.84
2023-03-21T13:42:06.389Z,100933.00
2023-03-21T13:47:28.602Z,100948.97
2023-03-21T13:52:32.703Z,100910.72
2023-03-21T13:57:39.875Z,100954.66
2023-03-21T14:02:57.385Z,100871.03
2023-03-21T14:08:15.328Z,100915.19
2023-03-21T14:13:33.062Z,100761.69
2023-03-21T14:18:54.181Z,100889.56
2023-03-21T14:24:02.165Z,100906.72
2023-03-21T14:29:12.333Z,100734.47
2023-03-21T14:34:21.322Z,100893.41
2023-03-21T14:39:29.099Z,100862.91
2023-03-21T14:44:44.128Z,100751.06
2023-03-21T14:49:57.846Z,100617.31
2023-03-21T14:55:18.536Z,100730.25
2023-03-21T15:06:04.825Z,100617.06
2023-03-21T15:11:41.011Z,100479.69
2023-03-21T15:16:45.682Z,100878.97
2023-03-21T15:21:55.130Z,100880.56
2023-03-21T15:27:06.540Z,100880.09
2023-03-21T15:32:18.562Z,100707.06
2023-03-21T15:37:25.237Z,100694.97
2023-03-21T15:43:15.390Z,100735.94
2023-03-21T15:48:38.767Z,100868.13
2023-03-21T15:53:48.911Z,100851.81
2023-03-21T15:58:55.331Z,100821.66
2023-03-21T16:04:13.281Z,100641.13
2023-03-21T16:09:24.893Z,100868.13
2023-03-21T16:14:31.587Z,100879.13
2023-03-21T16:19:43.619Z,100711.25
2023-03-21T16:25:04.079Z,100780.19
2023-03-21T16:30:18.972Z,100734.75
2023-03-21T16:35:32.550Z,100873.56
2023-03-21T16:40:42.137Z,100497.00
2023-03-21T16:45:48.422Z,100879.38
2023-03-21T16:50:55.504Z,100871.28
2023-03-21T16:56:04.036Z,100847.06
2023-03-21T17:01:25.849Z,100861.91
2023-03-21T17:06:34.835Z,100816.47
2023-03-21T17:11:42.286Z,100508.50
2023-03-21T17:16:49.615Z,100723.88
2023-03-21T17:21:57.111Z,100779.63
2023-03-21T17:27:15.631Z,100640.41
2023-03-21T17:32:37.054Z,100907.88
2023-03-21T17:37:49.992Z,100905.56
2023-03-21T17:43:00.959Z,100907.09
2023-03-21T17:48:06.727Z,100833.28
2023-03-21T17:53:15.211Z,100888.72
2023-03-21T17:58:22.876Z,100557.06
2023-03-21T18:03:30.277Z,100818.03
2023-03-21T18:08:55.123Z,100647.50
2023-03-21T18:14:16.237Z,100821.91
2023-03-21T18:19:23.304Z,100698.63
2023-03-21T18:24:29.710Z,100692.41
2023-03-21T18:35:03.964Z,100852.25
2023-03-21T18:40:13.763Z,100836.91
2023-03-21T18:45:44.013Z,100919.00
2023-03-21T18:51:10.983Z,100854.16
2023-03-21T19:03:18.832Z,100830.09
2023-03-21T19:08:30.425Z,100733.44
2023-03-21T19:13:34.401Z,100884.03
2023-03-21T19:25:40.157Z,100722.38
2023-03-21T19:31:41.098Z,100876.34
2023-03-21T19:36:52.647Z,100786.31
2023-03-21T19:42:15.002Z,100733.53
2023-03-21T19:47:20.746Z,100725.63
2023-03-21T19:52:26.436Z,100874.09
2023-03-21T19:57:31.115Z,100830.59
2023-03-21T20:02:36.911Z,100708.31
2023-03-21T20:07:40.220Z,100670.44
2023-03-21T20:12:45.037Z,100689.19
2023-03-21T20:17:50.110Z,100811.78
2023-03-21T20:23:06.216Z,100533.13
2023-03-21T20:28:20.134Z,100845.19
2023-03-21T20:33:29.704Z,100856.81
2023-03-21T20:38:35.514Z,100778.84
2023-03-21T20:49:06.570Z,100465.03
2023-03-21T20:54:09.871Z,100763.22
2023-03-21T20:59:24.507Z,100791.38
2023-03-21T21:04:57.312Z,100760.31
2023-03-21T21:10:12.313Z,100858.75
2023-03-21T21:15:33.823Z,100852.38
2023-03-21T21:20:38.441Z,100696.25
2023-03-21T21:25:42.852Z,100862.75
2023-03-21T21:30:57.328Z,100856.38
2023-03-21T21:36:10.711Z,100864.84
2023-03-21T21:41:26.730Z,100851.41
2023-03-21T21:46:33.178Z,100802.78
2023-03-21T21:51:39.122Z,100581.13
2023-03-21T21:56:49.343Z,100850.88
2023-03-21T22:01:58.647Z,100538.25
2023-03-21T22:07:03.261Z,100828.81
2023-03-21T22:12:12.867Z,100775.44
2023-03-21T22:17:17.316Z,100675.50
2023-03-21T22:22:20.231Z,100672.06
2023-03-21T22:27:24.648Z,100625.91
2023-03-21T22:32:31.510Z,100542.63
2023-03-21T22:37:41.071Z,100624.75
2023-03-21T22:43:14.643Z,100461.13
2023-03-21T22:48:20.237Z,100663.09
2023-03-21T22:53:28.143Z,100836.44
2023-03-21T22:58:32.351Z,100555.03
2023-03-21T23:03:42.065Z,100825.50
2023-03-21T23:08:49.193Z,100825.72
2023-03-21T23:14:06.859Z,100811.25
2023-03-21T23:25:03.115Z,100504.53
2023-03-21T23:30:22.180Z,100721.25
2023-03-21T23:35:36.064Z,100409.28
2023-03-21T23:40:47.676Z,100412.88
2023-03-21T23:45:58.172Z,100779.34
2023-03-21T23:51:23.394Z,100330.44
2023-03-21T23:56:32.621Z,100426.91
